createdAt,value
2017-10-14T00:01:02.447Z,5.33
2017-10-14T00:03:28.667Z,5.93
2017-10-14T00:05:54.878Z,5.33
2017-10-14T00:08:21.454Z,5.70
2017-10-14T00:10:47.934Z,4.70
2017-10-14T00:13:14.205Z,5.10
2017-10-14T00:15:40.431Z,5.07
2017-10-14T00:18:07.110Z,4.80
2017-10-14T00:20:33.629Z,5.67
2017-10-14T00:23:00.260Z,5.00
2017-10-14T00:25:26.882Z,6.00
2017-10-14T00:27:53.083Z,5.60
2017-10-14T00:30:19.643Z,5.20
2017-10-14T00:32:45.933Z,4.93
2017-10-14T00:35:12.415Z,4.90
2017-10-14T00:37:38.633Z,5.77
2017-10-14T00:40:05.346Z,4.23
2017-10-14T00:42:31.619Z,5.43
2017-10-14T00:44:57.854Z,5.40
2017-10-14T00:47:24.059Z,5.20
2017-10-14T00:49:50.902Z,5.17
2017-10-14T00:52:17.132Z,6.43
2017-10-14T00:54:43.387Z,6.13
2017-10-14T00:57:10.443Z,6.30
2017-10-14T00:59:37.110Z,7.33
2017-10-14T01:02:03.385Z,7.30
2017-10-14T01:04:29.610Z,6.80
2017-10-14T01:06:56.369Z,6.33
2017-10-14T01:09:22.555Z,7.90
2017-10-14T01:11:49.126Z,7.30
2017-10-14T01:14:15.369Z,7.13
2017-10-14T01:16:41.581Z,6.57
2017-10-14T01:19:07.864Z,8.50
2017-10-14T01:21:34.098Z,7.47
2017-10-14T01:24:00.412Z,7.50
2017-10-14T01:26:26.700Z,7.23
2017-10-14T01:28:54.639Z,6.00
2017-10-14T01:31:20.892Z,7.20
2017-10-14T01:33:47.143Z,6.43
2017-10-14T01:36:14.125Z,7.33
2017-10-14T01:38:40.339Z,7.60
2017-10-14T01:41:08.010Z,6.60
2017-10-14T01:43:34.283Z,7.00
2017-10-14T01:46:00.470Z,7.03
2017-10-14T01:48:27.086Z,6.97
2017-10-14T01:50:53.276Z,7.17
2017-10-14T01:53:19.505Z,6.43
2017-10-14T01:55:47.330Z,7.20
2017-10-14T01:58:14.314Z,6.37
2017-10-14T02:00:40.906Z,6.53
2017-10-14T02:03:07.718Z,6.50
2017-10-14T02:05:33.943Z,6.80
2017-10-14T02:08:00.181Z,6.47
2017-10-14T02:10:26.398Z,6.67
2017-10-14T02:12:53.455Z,7.70
2017-10-14T02:15:19.625Z,7.63
2017-10-14T02:17:45.795Z,6.17
2017-10-14T02:20:12.051Z,6.30
2017-10-14T02:22:38.305Z,6.40
2017-10-14T02:25:04.496Z,5.53
2017-10-14T02:27:30.790Z,6.80
2017-10-14T02:29:56.959Z,6.23
2017-10-14T02:32:23.206Z,6.93
2017-10-14T02:34:49.439Z,6.60
2017-10-14T02:37:15.638Z,6.30
2017-10-14T02:39:42.562Z,7.30
2017-10-14T02:42:08.751Z,6.80
2017-10-14T02:44:35.673Z,7.43
2017-10-14T02:47:01.928Z,6.93
2017-10-14T02:49:28.097Z,6.73
2017-10-14T02:51:54.278Z,7.00
2017-10-14T02:54:21.682Z,6.50
2017-10-14T02:56:47.931Z,7.03
2017-10-14T02:59:14.511Z,6.83
2017-10-14T03:01:40.719Z,7.23
2017-10-14T03:04:07.728Z,7.10
2017-10-14T03:06:34.271Z,7.87
2017-10-14T03:09:00.456Z,7.20
2017-10-14T03:11:26.663Z,7.03
2017-10-14T03:13:52.868Z,6.80
2017-10-14T03:16:19.845Z,7.00
2017-10-14T03:18:46.364Z,6.60
2017-10-14T03:21:12.586Z,6.87
2017-10-14T03:23:38.823Z,6.70
2017-10-14T03:26:05.720Z,6.20
2017-10-14T03:28:33.168Z,7.50
2017-10-14T03:30:59.423Z,6.17
2017-10-14T03:33:25.629Z,5.97
2017-10-14T03:35:51.872Z,5.40
2017-10-14T03:38:18.083Z,7.47
2017-10-14T03:40:44.284Z,6.93
2017-10-14T03:43:10.491Z,6.20
2017-10-14T03:45:37.091Z,6.50
2017-10-14T03:48:04.435Z,6.70
2017-10-14T03:50:30.624Z,5.77
2017-10-14T03:52:56.831Z,7.53
2017-10-14T03:55:23.058Z,7.20
2017-10-14T03:57:49.285Z,5.00
2017-10-14T04:00:15.896Z,6.17
2017-10-14T04:02:42.104Z,6.40
2017-10-14T04:05:09.051Z,6.63
2017-10-14T04:07:35.297Z,6.73
2017-10-14T04:10:01.523Z,7.57
2017-10-14T04:12:27.722Z,8.77
2017-10-14T04:14:54.670Z,8.10
2017-10-14T04:17:20.911Z,7.93
2017-10-14T04:19:47.254Z,8.80
2017-10-14T04:22:13.465Z,9.53
2017-10-14T04:24:39.698Z,9.37
2017-10-14T04:27:05.928Z,7.87
2017-10-14T04:29:32.191Z,10.00
2017-10-14T04:31:58.395Z,9.57
2017-10-14T04:34:24.565Z,8.90
2017-10-14T04:36:50.781Z,9.53
2017-10-14T04:39:16.972Z,9.07
2017-10-14T04:41:43.226Z,9.20
2017-10-14T04:44:10.345Z,10.10
2017-10-14T04:46:37.071Z,9.57
2017-10-14T04:49:03.525Z,9.70
2017-10-14T04:51:29.820Z,8.67
2017-10-14T04:53:56.374Z,8.90
2017-10-14T04:56:22.702Z,8.13
2017-10-14T04:58:48.884Z,9.30
2017-10-14T05:01:16.468Z,10.53
2017-10-14T05:03:43.771Z,10.10
2017-10-14T05:06:10.376Z,12.27
2017-10-14T05:08:37.870Z,9.27
2017-10-14T05:11:04.072Z,9.47
2017-10-14T05:13:30.287Z,9.47
2017-10-14T05:15:56.722Z,8.30
2017-10-14T05:18:23.313Z,9.80
2017-10-14T05:20:49.532Z,9.57
2017-10-14T05:23:17.268Z,9.90
2017-10-14T05:25:45.064Z,9.03
2017-10-14T05:28:11.241Z,7.77
2017-10-14T05:30:37.470Z,8.40
2017-10-14T05:33:03.650Z,8.80
2017-10-14T05:35:29.830Z,9.10
2017-10-14T05:37:56.037Z,11.10
2017-10-14T05:40:22.998Z,10.30
2017-10-14T05:42:49.207Z,10.70
2017-10-14T05:45:15.399Z,12.30
2017-10-14T05:47:41.594Z,9.40
2017-10-14T05:50:08.502Z,9.73
2017-10-14T05:52:34.696Z,11.40
2017-10-14T05:55:01.102Z,12.57
2017-10-14T05:57:27.342Z,12.30
2017-10-14T05:59:53.537Z,11.50
2017-10-14T06:02:20.128Z,10.60
2017-10-14T06:04:47.223Z,10.80
2017-10-14T06:07:15.146Z,12.93
2017-10-14T06:09:42.132Z,10.50
2017-10-14T06:12:08.401Z,11.30
2017-10-14T06:14:35.449Z,10.57
2017-10-14T06:17:02.459Z,9.80
2017-10-14T06:19:28.687Z,9.67
2017-10-14T06:21:54.921Z,8.73
2017-10-14T06:24:21.489Z,10.93
2017-10-14T06:26:47.677Z,9.80
2017-10-14T06:29:13.923Z,9.33
2017-10-14T06:31:40.870Z,9.87
2017-10-14T06:34:07.688Z,9.90
2017-10-14T06:36:33.974Z,8.93
2017-10-14T06:39:00.258Z,10.10
2017-10-14T06:51:06.518Z,9.13
2017-10-14T06:53:32.759Z,7.80
2017-10-14T06:55:59.041Z,9.20
2017-10-14T06:58:25.596Z,10.03
2017-10-14T07:00:51.811Z,8.40
2017-10-14T07:03:18.082Z,8.70
2017-10-14T07:05:44.321Z,9.07
2017-10-14T07:08:10.567Z,8.70
2017-10-14T07:10:36.770Z,9.70
2017-10-14T07:13:02.990Z,9.37
2017-10-14T07:15:29.922Z,9.73
2017-10-14T07:17:56.126Z,8.73
2017-10-14T07:20:25.356Z,8.97
2017-10-14T07:22:51.574Z,10.37
2017-10-14T07:25:17.788Z,10.13
2017-10-14T07:27:44.893Z,10.10
2017-10-14T07:30:11.689Z,10.97
2017-10-14T07:32:38.914Z,10.20
2017-10-14T07:35:05.128Z,8.83
2017-10-14T07:37:31.356Z,8.83
2017-10-14T07:39:58.675Z,9.37
2017-10-14T07:42:24.991Z,8.00
2017-10-14T07:44:51.249Z,9.33
2017-10-14T07:47:17.708Z,7.73
2017-10-14T07:49:43.975Z,8.13
2017-10-14T07:52:10.419Z,8.27
2017-10-14T07:54:37.321Z,6.83
2017-10-14T07:57:03.528Z,7.13
2017-10-14T07:59:30.511Z,7.30
2017-10-14T08:01:57.630Z,6.93
2017-10-14T08:04:23.861Z,7.10
2017-10-14T08:06:50.196Z,7.97
2017-10-14T08:09:17.337Z,7.43
2017-10-14T08:11:43.902Z,6.83
2017-10-14T08:14:11.225Z,6.07
2017-10-14T08:16:38.439Z,6.93
2017-10-14T08:19:04.658Z,8.43
2017-10-14T08:21:32.948Z,7.90
2017-10-14T08:23:59.518Z,6.50
2017-10-14T08:26:25.890Z,6.40
2017-10-14T08:28:52.170Z,6.27
2017-10-14T08:31:18.898Z,7.43
2017-10-14T08:33:45.884Z,7.10
2017-10-14T08:36:12.119Z,6.27
2017-10-14T08:38:39.002Z,5.83
2017-10-14T08:41:05.283Z,6.40
2017-10-14T08:43:31.972Z,6.70
2017-10-14T08:45:58.328Z,5.77
2017-10-14T08:48:24.617Z,5.23
2017-10-14T08:50:51.615Z,7.80
2017-10-14T08:53:18.629Z,6.60
2017-10-14T08:55:44.864Z,5.97
2017-10-14T08:58:11.818Z,8.00
2017-10-14T09:00:39.203Z,6.43
2017-10-14T09:03:05.413Z,6.60
2017-10-14T09:05:35.037Z,6.20
2017-10-14T09:08:02.232Z,6.13
2017-10-14T09:10:28.467Z,7.00
2017-10-14T09:12:54.763Z,5.47
2017-10-14T09:15:21.315Z,6.53
2017-10-14T09:17:47.990Z,6.97
2017-10-14T09:20:14.602Z,6.87
2017-10-14T09:22:42.042Z,5.80
2017-10-14T09:25:08.777Z,6.50
2017-10-14T09:27:36.907Z,5.87
2017-10-14T09:30:06.347Z,5.77
2017-10-14T09:32:32.584Z,5.97
2017-10-14T09:34:59.610Z,5.73
2017-10-14T09:37:25.955Z,5.63
2017-10-14T09:39:52.590Z,5.90
2017-10-14T09:42:19.698Z,6.23
2017-10-14T09:44:46.375Z,6.37
2017-10-14T09:47:12.576Z,7.20
2017-10-14T09:49:38.815Z,5.90
2017-10-14T09:52:04.992Z,7.03
2017-10-14T09:54:31.264Z,7.27
2017-10-14T09:56:57.513Z,5.90
2017-10-14T09:59:23.751Z,5.50
2017-10-14T10:01:50.231Z,6.93
2017-10-14T10:04:16.506Z,6.50
2017-10-14T10:06:43.456Z,5.53
2017-10-14T10:09:10.721Z,7.57
2017-10-14T10:11:37.324Z,5.40
2017-10-14T10:14:03.546Z,5.93
2017-10-14T10:16:30.382Z,6.70
2017-10-14T10:18:56.609Z,6.20
2017-10-14T10:21:23.707Z,4.70
2017-10-14T10:23:50.402Z,4.40
2017-10-14T10:26:17.576Z,5.53
2017-10-14T10:28:43.954Z,5.73
2017-10-14T10:31:10.550Z,5.47
2017-10-14T10:33:36.809Z,8.77
2017-10-14T10:36:03.166Z,8.30
2017-10-14T10:38:30.096Z,6.63
2017-10-14T10:40:56.344Z,6.37
2017-10-14T10:43:22.574Z,5.10
2017-10-14T10:45:50.446Z,6.60
2017-10-14T10:48:17.972Z,7.47
2017-10-14T10:50:44.645Z,4.90
2017-10-14T10:53:11.052Z,6.53
2017-10-14T10:55:38.354Z,5.10
2017-10-14T10:58:04.963Z,5.87
2017-10-14T11:00:31.188Z,4.67
2017-10-14T11:02:58.491Z,4.53
2017-10-14T11:05:24.818Z,3.83
2017-10-14T11:07:51.410Z,4.20
2017-10-14T11:10:17.627Z,3.97
2017-10-14T11:12:43.881Z,3.80
2017-10-14T11:15:10.067Z,3.30
2017-10-14T11:17:36.320Z,3.10
2017-10-14T11:20:02.637Z,3.20
2017-10-14T11:22:29.709Z,3.80
2017-10-14T11:34:36.032Z,3.80
2017-10-14T11:37:03.591Z,3.77
2017-10-14T11:39:30.629Z,3.93
2017-10-14T11:41:57.869Z,3.30
2017-10-14T11:44:24.074Z,3.27
2017-10-14T11:56:33.206Z,6.60
2017-10-14T11:58:59.602Z,3.70
2017-10-14T12:01:26.657Z,4.10
2017-10-14T12:03:53.646Z,4.60
2017-10-14T12:06:19.855Z,5.20
2017-10-14T12:08:46.141Z,4.50
2017-10-14T12:11:12.477Z,5.03
2017-10-14T12:13:39.881Z,4.63
2017-10-14T12:16:06.063Z,4.37
2017-10-14T12:18:32.254Z,4.73
2017-10-14T12:20:58.512Z,4.10
2017-10-14T12:23:25.719Z,4.37
2017-10-14T12:25:52.667Z,5.07
2017-10-14T12:28:19.660Z,4.10
2017-10-14T12:30:46.241Z,6.90
2017-10-14T12:33:12.453Z,4.47
2017-10-14T12:35:39.644Z,3.40
2017-10-14T12:38:08.329Z,5.37
2017-10-14T12:40:35.256Z,4.97
2017-10-14T12:43:02.499Z,4.87
2017-10-14T12:45:33.381Z,4.37
2017-10-14T12:48:00.235Z,4.23
2017-10-14T12:50:27.942Z,6.70
2017-10-14T12:52:55.683Z,4.37
2017-10-14T12:55:24.022Z,5.00
2017-10-14T12:57:50.643Z,4.00
2017-10-14T13:00:16.931Z,4.93
2017-10-14T13:02:44.050Z,3.93
2017-10-14T13:05:10.632Z,3.80
2017-10-14T13:07:36.827Z,3.23
2017-10-14T13:10:03.041Z,4.30
2017-10-14T13:12:29.307Z,3.40
2017-10-14T13:14:57.176Z,3.60
2017-10-14T13:17:23.442Z,4.07
2017-10-14T13:19:51.892Z,4.10
2017-10-14T13:22:18.143Z,4.03
2017-10-14T13:24:45.166Z,3.13
2017-10-14T13:27:11.512Z,2.90
2017-10-14T13:29:37.977Z,2.10
2017-10-14T13:32:04.974Z,2.90
2017-10-14T13:34:31.575Z,3.37
2017-10-14T13:36:58.508Z,3.90
2017-10-14T13:39:24.988Z,3.23
2017-10-14T13:41:52.318Z,4.10
2017-10-14T13:44:18.551Z,2.70
2017-10-14T13:46:45.840Z,3.50
2017-10-14T13:49:12.395Z,4.53
2017-10-14T13:51:38.984Z,4.23
2017-10-14T13:54:05.524Z,4.50
2017-10-14T13:56:32.721Z,4.30
2017-10-14T13:58:59.589Z,3.30
2017-10-14T14:01:28.520Z,4.53
2017-10-14T14:03:54.911Z,3.43
2017-10-14T14:06:21.667Z,3.20
2017-10-14T14:08:47.894Z,4.30
2017-10-14T14:11:14.088Z,3.80
2017-10-14T14:13:40.285Z,3.00
2017-10-14T14:16:06.492Z,3.77
2017-10-14T14:18:32.666Z,3.30
2017-10-14T14:23:48.207Z,3.37
2017-10-14T14:26:15.513Z,3.50
2017-10-14T14:28:41.708Z,4.30
2017-10-14T14:31:09.041Z,3.87
2017-10-14T14:33:35.506Z,3.20
2017-10-14T14:36:01.742Z,3.10
2017-10-14T14:38:28.897Z,3.57
2017-10-14T14:40:55.832Z,3.40
2017-10-14T14:43:22.052Z,3.40
2017-10-14T14:45:49.348Z,4.00
2017-10-14T14:48:17.114Z,3.40
2017-10-14T14:50:43.713Z,3.47
2017-10-14T14:53:12.144Z,3.83
2017-10-14T14:55:39.078Z,3.03
2017-10-14T14:58:05.570Z,3.50
2017-10-14T15:00:32.977Z,3.17
2017-10-14T15:02:59.208Z,3.07
2017-10-14T15:05:25.427Z,3.30
2017-10-14T15:07:52.411Z,4.03
2017-10-14T15:10:19.170Z,3.23
2017-10-14T15:12:46.173Z,2.70
2017-10-14T15:15:12.767Z,3.60
2017-10-14T15:17:39.004Z,3.33
2017-10-14T15:20:06.355Z,3.73
2017-10-14T15:22:32.631Z,3.57
2017-10-14T15:24:58.908Z,3.30
2017-10-14T15:27:25.133Z,4.00
2017-10-14T15:29:52.102Z,4.60
2017-10-14T15:32:18.717Z,3.23
2017-10-14T15:34:45.690Z,4.53
2017-10-14T15:37:12.244Z,4.47
2017-10-14T15:39:39.439Z,4.20
2017-10-14T15:42:05.666Z,3.33
2017-10-14T15:44:31.876Z,3.93
2017-10-14T15:46:58.178Z,3.90
2017-10-14T15:49:24.362Z,3.87
2017-10-14T15:51:50.564Z,3.57
2017-10-14T15:54:17.649Z,3.30
2017-10-14T15:56:44.798Z,3.40
2017-10-14T15:59:11.889Z,3.43
2017-10-14T16:01:38.464Z,3.40
2017-10-14T16:04:04.630Z,3.53
2017-10-14T16:06:30.838Z,3.80
2017-10-14T16:08:57.051Z,2.77
2017-10-14T16:11:23.558Z,3.37
2017-10-14T16:13:50.186Z,3.73
2017-10-14T16:16:16.442Z,3.87
2017-10-14T16:18:44.180Z,3.83
2017-10-14T16:21:10.459Z,4.13
2017-10-14T16:23:37.083Z,3.90
2017-10-14T16:26:03.348Z,4.20
2017-10-14T16:28:30.620Z,4.60
2017-10-14T16:30:57.161Z,4.30
2017-10-14T16:33:24.413Z,4.50
2017-10-14T16:35:51.514Z,5.27
2017-10-14T16:38:17.691Z,5.93
2017-10-14T16:40:45.135Z,5.20
2017-10-14T16:43:13.997Z,5.93
2017-10-14T16:45:40.248Z,5.43
2017-10-14T16:48:06.830Z,5.07
2017-10-14T17:00:13.090Z,5.83
2017-10-14T17:02:39.414Z,6.53
2017-10-14T17:05:06.617Z,6.07
2017-10-14T17:07:33.277Z,5.50
2017-10-14T17:10:00.216Z,5.97
2017-10-14T17:12:26.435Z,5.27
2017-10-14T17:14:52.731Z,5.33
2017-10-14T17:17:19.182Z,4.57
2017-10-14T17:19:47.639Z,5.13
2017-10-14T17:22:13.870Z,5.63
2017-10-14T17:24:40.139Z,4.67
2017-10-14T17:27:06.310Z,4.97
2017-10-14T17:29:33.182Z,5.90
2017-10-14T17:32:00.344Z,5.13
2017-10-14T17:34:26.565Z,5.00
2017-10-14T17:36:52.801Z,6.00
2017-10-14T17:39:19.731Z,4.90
2017-10-14T17:41:45.977Z,4.97
2017-10-14T17:44:15.778Z,5.53
2017-10-14T17:46:42.032Z,4.67
2017-10-14T17:49:08.238Z,5.37
2017-10-14T17:51:34.447Z,5.93
2017-10-14T18:03:40.763Z,5.20
2017-10-14T18:06:06.967Z,4.60
2017-10-14T18:08:33.167Z,5.23
2017-10-14T18:10:59.814Z,4.90
2017-10-14T18:13:26.049Z,4.80
2017-10-14T18:15:53.006Z,4.73
2017-10-14T18:18:19.615Z,5.03
2017-10-14T18:20:45.832Z,6.67
2017-10-14T18:23:14.213Z,5.60
2017-10-14T18:25:40.408Z,5.50
2017-10-14T18:28:06.673Z,8.03
2017-10-14T18:30:34.530Z,5.40
2017-10-14T18:33:00.757Z,5.03
2017-10-14T18:35:26.997Z,4.93
2017-10-14T18:37:53.235Z,4.83
2017-10-14T18:40:19.999Z,4.70
2017-10-14T18:42:46.299Z,4.83
2017-10-14T18:45:12.614Z,5.63
2017-10-14T18:47:38.925Z,5.23
2017-10-14T18:50:05.171Z,5.37
2017-10-14T18:52:32.130Z,4.90
2017-10-14T18:54:58.372Z,5.43
2017-10-14T18:57:24.632Z,5.83
2017-10-14T18:59:50.872Z,5.03
2017-10-14T19:02:17.326Z,5.07
2017-10-14T19:04:45.157Z,5.47
2017-10-14T19:07:11.798Z,5.60
2017-10-14T19:09:38.031Z,5.30
2017-10-14T19:12:05.024Z,6.20
2017-10-14T19:14:31.217Z,5.23
2017-10-14T19:16:57.442Z,5.00
2017-10-14T19:19:23.665Z,5.83
2017-10-14T19:21:49.928Z,6.80
2017-10-14T19:24:16.122Z,5.70
2017-10-14T19:26:42.724Z,4.60
2017-10-14T19:29:08.989Z,5.13
2017-10-14T19:31:35.258Z,5.20
2017-10-14T19:34:01.803Z,5.50
2017-10-14T19:36:28.044Z,4.90
2017-10-14T19:38:56.227Z,6.87
2017-10-14T19:41:24.443Z,6.83
2017-10-14T19:43:51.059Z,6.83
2017-10-14T19:46:17.560Z,6.07
2017-10-14T19:48:43.939Z,7.00
2017-10-14T19:51:15.255Z,7.37
2017-10-14T19:53:42.333Z,5.33
2017-10-14T19:56:09.674Z,7.20
2017-10-14T19:58:36.620Z,6.57
2017-10-14T20:01:02.929Z,5.17
2017-10-14T20:03:29.180Z,7.40
2017-10-14T20:05:55.937Z,6.80
2017-10-14T20:08:23.926Z,6.80
2017-10-14T20:10:50.131Z,5.47
2017-10-14T20:13:16.835Z,7.70
2017-10-14T20:15:44.030Z,6.50
2017-10-14T20:18:11.140Z,6.23
2017-10-14T20:20:37.460Z,5.40
2017-10-14T20:23:05.590Z,7.60
2017-10-14T20:25:31.884Z,4.87
2017-10-14T20:27:58.509Z,4.77
2017-10-14T20:30:25.538Z,5.30
2017-10-14T20:32:51.735Z,4.50
2017-10-14T20:35:18.700Z,4.90
2017-10-14T20:37:45.254Z,6.30
2017-10-14T20:43:08.088Z,5.50
2017-10-14T20:45:35.219Z,5.07
2017-10-14T20:48:04.054Z,4.60
2017-10-14T20:50:32.716Z,5.30
2017-10-14T20:52:59.255Z,4.13
2017-10-14T20:55:26.391Z,6.03
2017-10-14T20:57:52.827Z,5.73
2017-10-14T21:00:19.225Z,5.30
2017-10-14T21:02:45.729Z,6.07
2017-10-14T21:05:12.246Z,5.07
2017-10-14T21:07:38.663Z,6.90
2017-10-14T21:10:04.891Z,5.00
2017-10-14T21:12:32.070Z,5.30
2017-10-14T21:14:58.996Z,5.87
2017-10-14T21:17:25.438Z,4.97
2017-10-14T21:19:52.117Z,4.53
2017-10-14T21:22:18.394Z,4.83
2017-10-14T21:24:45.365Z,7.73
2017-10-14T21:27:11.722Z,4.87
2017-10-14T21:29:38.337Z,6.93
2017-10-14T21:44:55.112Z,5.67
2017-10-14T21:47:21.764Z,4.23
2017-10-14T21:49:48.369Z,3.63
2017-10-14T21:52:14.693Z,4.20
2017-10-14T21:54:40.919Z,5.20
2017-10-14T21:57:07.118Z,4.80
2017-10-14T21:59:33.338Z,6.10
2017-10-14T22:01:59.872Z,5.67
2017-10-14T22:04:26.375Z,4.70
2017-10-14T22:06:52.619Z,4.40
2017-10-14T22:09:18.915Z,4.83
2017-10-14T22:11:45.641Z,3.70
2017-10-14T22:14:12.012Z,6.40
2017-10-14T22:16:38.516Z,4.57
2017-10-14T22:19:04.954Z,3.70
2017-10-14T22:21:31.220Z,5.80
2017-10-14T22:23:57.888Z,5.40
2017-10-14T22:26:24.838Z,5.70
2017-10-14T22:28:51.179Z,4.90
2017-10-14T22:31:18.818Z,4.93
2017-10-14T22:33:46.489Z,3.40
2017-10-14T22:36:12.926Z,4.80
2017-10-14T22:38:43.449Z,4.67
2017-10-14T22:41:10.719Z,3.83
2017-10-14T22:43:36.981Z,5.33
2017-10-14T22:46:03.822Z,4.60
2017-10-14T22:48:30.074Z,4.63
2017-10-14T22:50:56.478Z,5.53
2017-10-14T22:53:23.802Z,4.50
2017-10-14T22:55:50.945Z,6.73
2017-10-14T23:07:57.188Z,3.50
2017-10-14T23:10:24.088Z,3.40
2017-10-14T23:12:50.520Z,4.10
2017-10-14T23:15:16.859Z,3.90
2017-10-14T23:17:43.063Z,4.10
2017-10-14T23:20:09.253Z,3.80
2017-10-14T23:22:36.076Z,3.67
2017-10-14T23:25:02.342Z,3.83
2017-10-14T23:27:28.977Z,3.60
2017-10-14T23:29:55.213Z,4.27
2017-10-14T23:32:22.150Z,4.40
2017-10-14T23:34:48.720Z,3.97
2017-10-14T23:37:15.386Z,4.53
2017-10-14T23:39:41.605Z,4.10
2017-10-14T23:42:22.729Z,4.50
2017-10-14T23:44:48.949Z,4.13
2017-10-14T23:47:15.949Z,3.73
2017-10-14T23:52:16.580Z,4.00
